AUA62J LOWW-LDDU
Flight info
| Callsign | AUA62J |
|---|---|
| Flight time | N/A |
| Altitude | 33000 |
| Route | STEIN3C STEIN DCT NOHAT DCT NEKIN DCT IRDIV DCT NETKO NETKO1H |
| Aircraft | A320/M-SDE3FGHIRWY/LB1 |
Departure
| Time | 2026-04-26 19:36 |
|---|---|
| Airport | Vienna International Airport (LOWW) |
Arrival
| Time | N/A |
|---|---|
| Airport | Dubrovnik Ruđer Bošković Airport (LDDU) |
| Time | Latitude | Longitude | Altitude | Speed | Heading |
|---|---|---|---|---|---|
| 2026-04-26 19:11 | 48.11708 | 16.56791 | 599 ft | 0 kts | 27° |
| 2026-04-26 19:25 | 48.11703 | 16.56786 | 599 ft | 4 kts | 27° |
| 2026-04-26 19:26 | 48.11679 | 16.56768 | 599 ft | 4 kts | 27° |
| 2026-04-26 19:26 | 48.11657 | 16.56746 | 599 ft | 4 kts | 50° |
| 2026-04-26 19:26 | 48.11647 | 16.56714 | 599 ft | 4 kts | 107° |
| 2026-04-26 19:26 | 48.11649 | 16.56706 | 599 ft | 0 kts | 114° |
| 2026-04-26 19:31 | 48.11641 | 16.56733 | 599 ft | 10 kts | 115° |
| 2026-04-26 19:31 | 48.11606 | 16.56842 | 601 ft | 10 kts | 115° |
| 2026-04-26 19:31 | 48.11580 | 16.56926 | 602 ft | 8 kts | 115° |
| 2026-04-26 19:32 | 48.11560 | 16.56989 | 602 ft | 6 kts | 115° |
| 2026-04-26 19:32 | 48.11546 | 16.57033 | 603 ft | 4 kts | 115° |
| 2026-04-26 19:32 | 48.11538 | 16.57059 | 603 ft | 4 kts | 115° |
| 2026-04-26 19:32 | 48.11512 | 16.57141 | 610 ft | 12 kts | 115° |
| 2026-04-26 19:33 | 48.11477 | 16.57250 | 615 ft | 10 kts | 115° |
| 2026-04-26 19:33 | 48.11445 | 16.57337 | 613 ft | 9 kts | 119° |
| 2026-04-26 19:33 | 48.11410 | 16.57387 | 613 ft | 5 kts | 175° |
| 2026-04-26 19:33 | 48.11382 | 16.57379 | 611 ft | 3 kts | 200° |
| 2026-04-26 19:34 | 48.11367 | 16.57370 | 608 ft | 3 kts | 203° |
| 2026-04-26 19:34 | 48.11331 | 16.57345 | 613 ft | 8 kts | 207° |
| 2026-04-26 19:34 | 48.11263 | 16.57294 | 614 ft | 9 kts | 206° |
| 2026-04-26 19:34 | 48.11211 | 16.57256 | 612 ft | 7 kts | 206° |
| 2026-04-26 19:35 | 48.11169 | 16.57225 | 616 ft | 10 kts | 206° |
| 2026-04-26 19:35 | 48.11067 | 16.57134 | 614 ft | 22 kts | 220° |
| 2026-04-26 19:35 | 48.11061 | 16.57026 | 617 ft | 7 kts | 308° |
| 2026-04-26 19:35 | 48.11089 | 16.56972 | 608 ft | 7 kts | 301° |
| 2026-04-26 19:36 | 48.11171 | 16.56733 | 619 ft | 60 kts | 296° |
| 2026-04-26 19:36 | 48.11348 | 16.56201 | 599 ft | 107 kts | 296° |
| 2026-04-26 19:36 | 48.11919 | 16.54449 | 679 ft | 165 kts | 298° |
| 2026-04-26 19:36 | 48.12391 | 16.52851 | 1266 ft | 172 kts | 283° |
| 2026-04-26 19:37 | 48.12167 | 16.51119 | 1903 ft | 180 kts | 233° |
| 2026-04-26 19:37 | 48.11078 | 16.50082 | 2204 ft | 200 kts | 194° |
| 2026-04-26 19:37 | 48.09651 | 16.49586 | 2541 ft | 219 kts | 191° |
| 2026-04-26 19:37 | 48.08133 | 16.49122 | 3225 ft | 224 kts | 192° |
| 2026-04-26 19:38 | 48.06609 | 16.48619 | 4021 ft | 225 kts | 193° |
| 2026-04-26 19:38 | 48.05150 | 16.47847 | 4702 ft | 232 kts | 210° |
| 2026-04-26 19:38 | 48.03678 | 16.46594 | 5073 ft | 255 kts | 213° |
| 2026-04-26 19:38 | 48.02120 | 16.45131 | 5623 ft | 271 kts | 216° |
| 2026-04-26 19:39 | 48.00531 | 16.43592 | 6520 ft | 273 kts | 216° |
| 2026-04-26 19:39 | 47.98767 | 16.42474 | 7374 ft | 282 kts | 197° |
| 2026-04-26 19:39 | 47.96781 | 16.42293 | 8168 ft | 293 kts | 176° |
| 2026-04-26 19:39 | 47.94765 | 16.42951 | 8959 ft | 299 kts | 169° |
| 2026-04-26 19:40 | 47.92728 | 16.43692 | 9748 ft | 304 kts | 169° |
| 2026-04-26 19:40 | 47.90655 | 16.44438 | 10479 ft | 309 kts | 170° |
| 2026-04-26 19:40 | 47.88488 | 16.45203 | 10779 ft | 332 kts | 170° |
| 2026-04-26 19:40 | 47.86165 | 16.46013 | 10976 ft | 355 kts | 169° |
| 2026-04-26 19:41 | 47.83720 | 16.46868 | 11211 ft | 374 kts | 169° |
| 2026-04-26 19:41 | 47.81161 | 16.47768 | 11769 ft | 381 kts | 169° |
| 2026-04-26 19:41 | 47.78561 | 16.48685 | 12433 ft | 386 kts | 169° |
| 2026-04-26 19:41 | 47.76794 | 16.49307 | 12881 ft | 388 kts | 169° |
| 2026-04-26 19:42 | 47.73289 | 16.50546 | 13753 ft | 394 kts | 169° |
| 2026-04-26 19:42 | 47.70611 | 16.51491 | 14363 ft | 397 kts | 168° |
| 2026-04-26 19:42 | 47.67909 | 16.52440 | 14964 ft | 401 kts | 169° |
| 2026-04-26 19:42 | 47.65185 | 16.53390 | 15558 ft | 403 kts | 169° |
| 2026-04-26 19:43 | 47.62445 | 16.54344 | 16156 ft | 406 kts | 168° |
| 2026-04-26 19:43 | 47.59689 | 16.55307 | 16763 ft | 408 kts | 168° |
| 2026-04-26 19:43 | 47.56906 | 16.56212 | 17370 ft | 410 kts | 174° |
| 2026-04-26 19:43 | 47.54070 | 16.56612 | 17989 ft | 411 kts | 177° |
| 2026-04-26 19:44 | 47.51203 | 16.56967 | 18581 ft | 414 kts | 177° |
| 2026-04-26 19:44 | 47.48329 | 16.57319 | 19114 ft | 416 kts | 177° |
| 2026-04-26 19:44 | 47.45474 | 16.57666 | 19646 ft | 418 kts | 178° |
| 2026-04-26 19:44 | 47.42570 | 16.58019 | 20169 ft | 420 kts | 178° |
| 2026-04-26 19:45 | 47.39649 | 16.58378 | 20684 ft | 422 kts | 178° |
| 2026-04-26 19:45 | 47.36721 | 16.58737 | 21182 ft | 424 kts | 178° |
| 2026-04-26 19:45 | 47.33775 | 16.59099 | 21671 ft | 426 kts | 178° |
| 2026-04-26 19:45 | 47.30815 | 16.59463 | 22144 ft | 428 kts | 178° |
| 2026-04-26 19:46 | 47.27838 | 16.59828 | 22605 ft | 430 kts | 178° |
| 2026-04-26 19:46 | 47.24852 | 16.60197 | 23047 ft | 432 kts | 178° |
| 2026-04-26 19:46 | 47.21850 | 16.60563 | 23489 ft | 434 kts | 178° |
| 2026-04-26 19:46 | 47.18835 | 16.60928 | 23896 ft | 436 kts | 178° |
| 2026-04-26 19:47 | 47.15803 | 16.61293 | 24235 ft | 438 kts | 178° |
| 2026-04-26 19:47 | 47.13787 | 16.61535 | 24445 ft | 440 kts | 179° |
| 2026-04-26 19:47 | 47.09735 | 16.62032 | 24855 ft | 443 kts | 178° |
| 2026-04-26 19:47 | 47.06654 | 16.62412 | 25167 ft | 445 kts | 178° |
| 2026-04-26 19:48 | 47.03560 | 16.62795 | 25456 ft | 448 kts | 178° |
| 2026-04-26 19:48 | 47.00443 | 16.63178 | 25756 ft | 450 kts | 178° |
| 2026-04-26 19:48 | 46.97311 | 16.63555 | 26051 ft | 453 kts | 179° |
| 2026-04-26 19:48 | 46.94164 | 16.63929 | 26342 ft | 455 kts | 178° |
| 2026-04-26 19:49 | 46.91005 | 16.64306 | 26613 ft | 457 kts | 178° |
| 2026-04-26 19:49 | 46.87825 | 16.64686 | 26886 ft | 460 kts | 178° |
| 2026-04-26 19:49 | 46.84668 | 16.65063 | 27147 ft | 462 kts | 178° |
| 2026-04-26 19:49 | 46.81416 | 16.65455 | 27406 ft | 464 kts | 178° |
| 2026-04-26 19:50 | 46.78189 | 16.65845 | 27654 ft | 466 kts | 178° |
| 2026-04-26 19:50 | 46.74950 | 16.66238 | 27904 ft | 469 kts | 178° |
| 2026-04-26 19:50 | 46.71690 | 16.66634 | 28145 ft | 470 kts | 178° |
| 2026-04-26 19:50 | 46.68470 | 16.67023 | 28371 ft | 472 kts | 178° |
| 2026-04-26 19:51 | 46.65184 | 16.67418 | 28591 ft | 474 kts | 178° |
| 2026-04-26 19:51 | 46.61889 | 16.67811 | 28821 ft | 476 kts | 178° |
| 2026-04-26 19:51 | 46.58600 | 16.68205 | 29140 ft | 475 kts | 178° |
| 2026-04-26 19:51 | 46.55308 | 16.68603 | 29472 ft | 474 kts | 178° |
| 2026-04-26 19:52 | 46.52023 | 16.68999 | 29795 ft | 473 kts | 178° |
| 2026-04-26 19:52 | 46.48749 | 16.69388 | 30119 ft | 472 kts | 178° |
| 2026-04-26 19:52 | 46.45478 | 16.69775 | 30435 ft | 471 kts | 178° |
| 2026-04-26 19:52 | 46.42216 | 16.70160 | 30714 ft | 470 kts | 177° |
| 2026-04-26 19:53 | 46.38982 | 16.70864 | 31006 ft | 471 kts | 170° |
| 2026-04-26 19:53 | 46.35824 | 16.71852 | 31304 ft | 469 kts | 170° |
| 2026-04-26 19:53 | 46.32643 | 16.72849 | 31606 ft | 468 kts | 170° |
| 2026-04-26 19:53 | 46.29460 | 16.73844 | 31905 ft | 466 kts | 170° |
| 2026-04-26 19:54 | 46.26293 | 16.74829 | 32202 ft | 465 kts | 170° |
| 2026-04-26 19:54 | 46.23131 | 16.75809 | 32499 ft | 464 kts | 171° |
| 2026-04-26 19:54 | 46.19983 | 16.76781 | 32794 ft | 463 kts | 171° |
| 2026-04-26 19:54 | 46.16839 | 16.77753 | 33080 ft | 462 kts | 170° |
| 2026-04-26 19:55 | 46.13697 | 16.78727 | 33216 ft | 462 kts | 171° |
| 2026-04-26 19:55 | 46.10549 | 16.79700 | 33226 ft | 463 kts | 171° |
| 2026-04-26 19:55 | 46.04255 | 16.81637 | 33221 ft | 463 kts | 171° |
| 2026-04-26 19:56 | 45.98006 | 16.83561 | 33219 ft | 463 kts | 171° |
| 2026-04-26 19:56 | 45.91706 | 16.85493 | 33219 ft | 463 kts | 171° |
| 2026-04-26 19:57 | 45.85407 | 16.87420 | 33214 ft | 463 kts | 171° |
| 2026-04-26 19:57 | 45.79098 | 16.89342 | 33206 ft | 463 kts | 171° |
| 2026-04-26 19:58 | 45.72792 | 16.91267 | 33194 ft | 464 kts | 171° |
| 2026-04-26 19:58 | 45.66564 | 16.93162 | 33186 ft | 464 kts | 171° |
| 2026-04-26 19:59 | 45.60289 | 16.95065 | 33183 ft | 464 kts | 171° |
| 2026-04-26 19:59 | 45.53969 | 16.96978 | 33180 ft | 464 kts | 171° |
| 2026-04-26 20:00 | 45.47650 | 16.98888 | 33179 ft | 465 kts | 171° |
| 2026-04-26 20:00 | 45.41323 | 17.00791 | 33177 ft | 464 kts | 171° |
| 2026-04-26 20:01 | 45.35046 | 17.02674 | 33175 ft | 464 kts | 170° |
| 2026-04-26 20:01 | 45.28728 | 17.04574 | 33184 ft | 464 kts | 170° |
| 2026-04-26 20:02 | 45.22419 | 17.06461 | 33184 ft | 463 kts | 170° |
| 2026-04-26 20:02 | 45.17176 | 17.08019 | 33194 ft | 463 kts | 170° |
| 2026-04-26 20:03 | 45.09852 | 17.10193 | 33216 ft | 463 kts | 170° |
| 2026-04-26 20:03 | 45.03542 | 17.12063 | 33218 ft | 463 kts | 170° |
| 2026-04-26 20:04 | 44.97224 | 17.13847 | 33221 ft | 463 kts | 171° |
| 2026-04-26 20:04 | 44.90907 | 17.15586 | 33219 ft | 462 kts | 171° |
| 2026-04-26 20:05 | 44.84636 | 17.17319 | 33217 ft | 463 kts | 171° |
| 2026-04-26 20:05 | 44.78322 | 17.19082 | 33213 ft | 463 kts | 171° |
| 2026-04-26 20:06 | 44.72005 | 17.20846 | 33204 ft | 462 kts | 171° |
| 2026-04-26 20:06 | 44.65695 | 17.22602 | 33198 ft | 462 kts | 171° |
| 2026-04-26 20:07 | 44.59437 | 17.24338 | 33194 ft | 461 kts | 171° |
| 2026-04-26 20:07 | 44.53142 | 17.26074 | 33192 ft | 461 kts | 171° |
| 2026-04-26 20:08 | 44.46855 | 17.27804 | 33195 ft | 460 kts | 171° |
| 2026-04-26 20:08 | 44.40568 | 17.29535 | 33189 ft | 460 kts | 170° |
| 2026-04-26 20:09 | 44.34284 | 17.31265 | 33196 ft | 461 kts | 170° |